Fiatt, Illinois
Current Conditions -  °F | °C
As of 11:35 AM on Thursday 30 Oct 2014 (Local Time) from KMQB Reporting Station
Overcast Overcast  
Wind Chill: 41°   Ceiling: 7500
Heat Index: 46°   Visibility: 10mi
Dew Point: 39°   Wind: 9mph
Humidity: 75%   Direction: 160°SSE
Pressure: 30.09"   Gusts: NA
Location:  40.56°N, 90.18°W
Report Text: KMQB 301635Z AUTO 16008KT 10SM SCT060 OVC075 08/04 A3009 RMK AO2 T00780037
Loading
Personal Weather Stations






























Interactive Weather Map
Tropical Storm Tracking
New forecast layout! Learn more

10-Day Weather Forecast

Advertisements
Track Severe Weather on mobile